Time;durP1;ratioP1;P1;durP2;ratioP2;P2;SDS_P1;SDS_P2;PMS_P1;PMS_P2;Temp;Humidity;BMP_temperature;BMP_pressure;BME280_temperature;BME280_humidity;BME280_pressure;Samples;Min_cycle;Max_cycle;Signal;HPM_P1;HPM_P2
2021/03/15 00:01:53;;;;;;;13.93;3.67;;;;;;;5.72;99.29;100971.59;4999463;28;20022;-74
2021/03/15 00:04:18;;;;;;;12.65;3.35;;;;;;;5.59;99.69;100947.88;5021568;28;20489;-71
2021/03/15 00:06:44;;;;;;;12.80;3.30;;;;;;;5.71;99.51;100969.91;5001022;28;20045;-71
2021/03/15 00:09:09;;;;;;;9.98;3.10;;;;;;;5.62;100.00;100964.38;5003080;28;20499;-71
2021/03/15 00:11:35;;;;;;;17.17;3.60;;;;;;;5.76;99.85;100981.00;5001830;28;20026;-71
2021/03/15 00:14:00;;;;;;;11.10;2.95;;;;;;;5.79;99.50;100976.31;5002519;28;20523;-71
2021/03/15 00:19:10;;;;;;;14.65;3.70;;;;;;;5.56;99.28;100943.69;5003412;28;20136;-71
2021/03/15 00:21:36;;;;;;;8.20;2.72;;;;;;;5.74;99.63;100974.97;5004878;28;20045;-71
2021/03/15 00:24:01;;;;;;;12.82;3.80;;;;;;;5.75;100.00;100971.38;4996937;28;20021;-71
2021/03/15 00:26:27;;;;;;;11.32;3.75;;;;;;;5.30;100.00;100904.16;5000915;28;20123;-71
2021/03/15 00:28:52;;;;;;;12.18;3.53;;;;;;;5.76;100.00;100970.41;5021577;28;20045;-71
2021/03/15 00:31:18;;;;;;;10.95;3.35;;;;;;;5.76;100.00;100968.63;4996104;28;20461;-71
2021/03/15 00:33:43;;;;;;;9.40;3.95;;;;;;;5.63;100.00;100949.34;5005200;28;20078;-71
2021/03/15 00:36:08;;;;;;;12.73;4.25;;;;;;;5.60;100.00;100945.13;4996525;28;20088;-71
2021/03/15 00:38:34;;;;;;;14.32;4.07;;;;;;;5.72;100.00;100961.88;4998856;28;20045;-71
2021/03/15 00:41:00;;;;;;;15.13;3.90;;;;;;;5.44;100.00;100920.78;5000072;28;20278;-71
2021/03/15 00:43:27;;;;;;;16.05;4.03;;;;;;;5.70;100.00;100955.84;5006310;28;20032;-71
2021/03/15 00:45:53;;;;;;;9.68;3.80;;;;;;;5.71;100.00;100957.53;5002285;28;20072;-70
2021/03/15 00:48:18;;;;;;;8.80;3.70;;;;;;;5.62;100.00;100948.50;5001667;28;20489;-71
2021/03/15 00:50:43;;;;;;;11.32;4.10;;;;;;;5.73;100.00;100955.63;5015913;28;20556;-71
2021/03/15 00:53:10;;;;;;;18.25;4.40;;;;;;;5.68;100.00;100957.75;5000304;28;20034;-71
2021/03/15 00:55:36;;;;;;;11.57;4.47;;;;;;;5.58;100.00;100941.72;4994506;28;20044;-71
2021/03/15 00:58:03;;;;;;;16.20;4.53;;;;;;;5.70;100.00;100955.84;4991807;28;20033;-71
2021/03/15 01:00:35;;;;;;;18.33;4.95;;;;;;;5.74;100.00;100961.75;5003015;28;20042;-71
2021/03/15 01:03:01;;;;;;;12.57;4.75;;;;;;;5.74;100.00;100959.94;4995994;28;20022;-71
2021/03/15 01:05:31;;;;;;;12.82;4.40;;;;;;;5.75;100.00;100959.00;4995157;28;20084;-71
2021/03/15 01:07:57;;;;;;;19.67;4.68;;;;;;;5.77;100.00;100962.34;4995949;28;20080;-71
2021/03/15 01:10:27;;;;;;;13.05;4.13;;;;;;;5.80;100.00;100969.22;4975591;28;20022;-71
2021/03/15 01:12:52;;;;;;;13.05;4.50;;;;;;;5.73;100.00;100960.91;4994486;28;20040;-71
2021/03/15 01:15:21;;;;;;;13.43;4.50;;;;;;;5.74;100.00;100967.03;4992204;28;20045;-71
2021/03/15 01:17:47;;;;;;;10.52;5.07;;;;;;;5.73;100.00;100960.91;4992801;28;20805;-70
2021/03/15 01:20:15;;;;;;;12.88;4.82;;;;;;;5.80;100.00;100966.56;5006734;28;20080;-71
2021/03/15 01:22:40;;;;;;;12.45;4.57;;;;;;;5.79;100.00;100968.38;5000771;28;20044;-70
2021/03/15 01:25:07;;;;;;;13.65;4.05;;;;;;;5.84;100.00;100968.00;4999149;28;20829;-71
2021/03/15 01:27:33;;;;;;;13.63;4.15;;;;;;;5.85;100.00;100972.34;5018394;28;20555;-71
2021/03/15 01:29:58;;;;;;;15.77;4.00;;;;;;;5.58;100.00;100925.03;5002046;28;20330;-71
2021/03/15 01:32:24;;;;;;;11.73;4.03;;;;;;;5.82;100.00;100975.25;5007416;28;20251;-70
2021/03/15 01:34:49;;;;;;;19.35;4.50;;;;;;;5.71;100.00;100962.81;5008252;28;20034;-71
2021/03/15 01:37:15;;;;;;;17.20;4.25;;;;;;;5.79;100.00;100971.00;5004849;28;20030;-70
2021/03/15 01:39:40;;;;;;;14.55;4.63;;;;;;;5.84;100.00;100975.94;5003450;28;20148;-71
2021/03/15 01:42:07;;;;;;;12.40;4.10;;;;;;;5.80;100.00;100971.88;5006616;28;20136;-71
2021/03/15 01:44:33;;;;;;;8.57;3.63;;;;;;;5.82;100.00;100969.94;5008634;28;20134;-71
2021/03/15 01:46:58;;;;;;;15.13;3.63;;;;;;;5.82;100.00;100977.91;5000143;28;20034;-71
2021/03/15 01:49:24;;;;;;;11.98;3.58;;;;;;;5.79;100.00;100967.53;5004980;28;20041;-70
2021/03/15 01:51:50;;;;;;;16.75;3.95;;;;;;;5.80;100.00;100971.88;5003878;28;20404;-70
2021/03/15 01:54:18;;;;;;;14.20;3.45;;;;;;;5.81;100.00;100977.03;5004771;28;20053;-71
2021/03/15 01:56:43;;;;;;;9.52;3.13;;;;;;;5.78;100.00;100974.63;4996738;28;20034;-70
2021/03/15 01:59:09;;;;;;;11.85;3.35;;;;;;;5.73;100.00;100971.50;5004298;28;20026;-70
2021/03/15 02:01:35;;;;;;;11.23;3.22;;;;;;;5.75;100.00;100977.53;5006697;28;20034;-70
2021/03/15 02:04:00;;;;;;;9.18;3.38;;;;;;;5.49;100.00;100939.81;5008421;28;20352;-70
2021/03/15 02:06:26;;;;;;;11.40;3.55;;;;;;;5.72;100.00;100979.53;5003850;28;20034;-71
2021/03/15 02:08:51;;;;;;;8.25;3.08;;;;;;;5.47;100.00;100939.94;5007929;28;20037;-71
2021/03/15 02:12:09;;;;;;;11.38;3.22;;;;;;;5.71;100.00;100976.06;5008283;28;20451;-70
2021/03/15 02:14:46;;;;;;;10.55;3.75;;;;;;;5.71;100.00;100967.25;5016150;28;20038;-70
2021/03/15 02:17:14;;;;;;;9.13;3.50;;;;;;;5.61;100.00;100962.69;5002810;28;20073;-71
2021/03/15 02:20:09;;;;;;;13.38;4.20;;;;;;;5.34;100.00;100936.53;5008487;28;20056;-70
2021/03/15 02:22:50;;;;;;;13.70;3.70;;;;;;;5.47;100.00;100978.78;5004903;28;20034;-70
2021/03/15 02:25:41;;;;;;;8.93;3.78;;;;;;;5.41;100.00;100973.97;5005898;28;20029;-70
2021/03/15 02:28:48;;;;;;;14.60;4.30;;;;;;;5.35;100.00;100978.75;5005402;28;20034;-71
2021/03/15 02:31:25;;;;;;;15.02;4.55;;;;;;;5.28;100.00;100985.47;5005039;28;20022;-70
2021/03/15 02:34:09;;;;;;;18.92;5.20;;;;;;;5.27;100.00;100996.16;5022596;28;20084;-70
2021/03/15 02:36:41;;;;;;;11.18;4.30;;;;;;;5.29;100.00;101000.41;5003191;28;20122;-70
2021/03/15 02:39:15;;;;;;;13.52;4.53;;;;;;;5.32;100.00;101001.97;4988716;28;20064;-71
2021/03/15 02:41:41;;;;;;;11.95;5.03;;;;;;;5.35;100.00;101005.22;5005886;28;20045;-71
2021/03/15 02:44:08;;;;;;;15.50;4.80;;;;;;;5.39;100.00;101005.00;5005509;28;20022;-70
2021/03/15 02:46:35;;;;;;;15.40;5.32;;;;;;;5.43;100.00;101001.16;4987046;28;20092;-71
2021/03/15 02:49:06;;;;;;;14.93;5.10;;;;;;;5.55;100.00;100999.38;4998771;28;20018;-69
2021/03/15 02:51:35;;;;;;;13.60;4.90;;;;;;;5.31;100.00;100960.59;5005764;28;20038;-69
2021/03/15 02:54:02;;;;;;;18.08;5.72;;;;;;;5.56;99.80;101001.94;5004083;28;20040;-69
2021/03/15 02:56:31;;;;;;;17.88;5.38;;;;;;;5.03;99.72;100912.41;5004274;28;20088;-69
2021/03/15 02:59:00;;;;;;;18.33;5.50;;;;;;;5.57;100.00;101005.41;5008008;28;20052;-69
2021/03/15 03:01:25;;;;;;;;;;;;;;;5.57;99.95;101003.59;5007700;28;20127;-69
2021/03/15 03:03:55;;;;;;;17.73;5.13;;;;;;;5.18;99.69;100953.56;5008303;28;19936;-69
2021/03/15 03:06:22;;;;;;;19.75;6.13;;;;;;;5.44;99.95;101005.47;5003059;28;20030;-69
2021/03/15 03:08:51;;;;;;;21.45;6.10;;;;;;;5.12;99.76;100975.19;5005158;28;20033;-69
2021/03/15 03:11:18;;;;;;;18.50;5.80;;;;;;;5.34;100.00;101016.75;5006789;28;20065;-70
2021/03/15 03:13:45;;;;;;;23.30;7.10;;;;;;;5.35;99.97;101022.91;5006988;28;20404;-70
2021/03/15 03:16:11;;;;;;;18.55;7.07;;;;;;;5.35;100.00;101030.84;5002633;28;20546;-70
2021/03/15 03:18:38;;;;;;;20.35;7.28;;;;;;;5.35;100.00;101020.28;5020645;28;20034;-70
2021/03/15 03:21:06;;;;;;;25.98;7.88;;;;;;;5.39;99.60;101019.06;4996875;28;20034;-70
2021/03/15 03:23:35;;;;;;;19.45;7.43;;;;;;;5.43;99.79;101023.16;5007131;28;20180;-70
2021/03/15 03:26:02;;;;;;;20.58;6.93;;;;;;;5.46;99.71;101025.59;5005197;28;20018;-70
2021/03/15 03:28:28;;;;;;;16.35;6.78;;;;;;;5.47;99.24;101034.38;5007509;28;20440;-70
2021/03/15 03:31:00;;;;;;;17.30;6.40;;;;;;;5.54;98.82;101032.09;5003548;28;20095;-70
2021/03/15 03:33:26;;;;;;;25.92;7.20;;;;;;;5.56;99.57;101033.69;5004227;28;20045;-69
2021/03/15 03:35:52;;;;;;;24.33;6.93;;;;;;;5.50;99.77;101032.31;5005158;28;20030;-70
2021/03/15 03:38:18;;;;;;;19.73;6.15;;;;;;;5.57;99.67;101037.16;5004979;28;20026;-70
2021/03/15 03:40:44;;;;;;;21.95;6.28;;;;;;;5.27;99.54;100996.16;5002569;28;20520;-70
2021/03/15 03:43:11;;;;;;;19.88;5.70;;;;;;;5.58;99.17;101039.69;5005667;28;20038;-70
2021/03/15 03:45:36;;;;;;;21.38;6.32;;;;;;;5.23;98.58;100990.25;5000407;28;20068;-70
2021/03/15 03:48:03;;;;;;;17.38;6.85;;;;;;;5.63;98.28;101042.03;5020590;28;20128;-70
2021/03/15 03:50:32;;;;;;;16.95;5.72;;;;;;;5.59;97.72;101048.50;5005129;28;20072;-71
2021/03/15 03:53:16;;;;;;;;;;;;;;;5.64;97.48;101059.56;4998059;28;20604;-70
2021/03/15 03:56:06;;;;;;;15.98;6.35;;;;;;;5.64;97.09;101057.78;4995599;28;19921;-70
2021/03/15 03:58:38;;;;;;;15.68;5.70;;;;;;;5.29;97.27;101002.19;5014665;28;20057;-71
2021/03/15 04:01:06;;;;;;;16.25;6.60;;;;;;;5.62;97.46;101069.44;5011997;28;20080;-70
2021/03/15 04:03:32;;;;;;;20.58;6.53;;;;;;;5.61;97.35;101060.66;4997278;28;20030;-71
2021/03/15 04:06:03;;;;;;;13.88;5.95;;;;;;;5.37;96.95;101018.31;4994854;28;20492;-71
2021/03/15 04:08:36;;;;;;;14.85;6.70;;;;;;;5.70;96.08;101072.34;4997336;28;20699;-71
2021/03/15 04:11:03;;;;;;;16.63;6.47;;;;;;;5.55;96.46;101058.47;4995656;28;20049;-71
2021/03/15 04:13:30;;;;;;;18.17;7.10;;;;;;;5.66;96.50;101082.34;4995039;28;20033;-71
2021/03/15 04:15:56;;;;;;;16.15;6.43;;;;;;;5.10;96.68;100989.50;5011675;28;20050;-71
2021/03/15 04:18:26;;;;;;;19.27;5.82;;;;;;;5.21;96.60;101011.56;4998124;28;20551;-71
2021/03/15 04:20:57;;;;;;;22.40;6.78;;;;;;;5.75;96.06;101096.69;4997096;28;20037;-71
2021/03/15 04:23:34;;;;;;;17.42;6.50;;;;;;;5.71;96.51;101095.22;4996936;28;20032;-71
2021/03/15 04:26:01;;;;;;;21.02;6.68;;;;;;;5.73;96.52;101103.03;4995900;28;20521;-71
2021/03/15 04:28:28;;;;;;;18.23;6.97;;;;;;;5.42;96.47;101063.00;4995381;28;20045;-71
2021/03/15 04:30:55;;;;;;;17.05;6.95;;;;;;;5.72;96.57;101109.31;4995700;28;20041;-71
2021/03/15 04:33:21;;;;;;;15.32;6.15;;;;;;;5.73;96.70;101108.34;5002995;28;20164;-71
2021/03/15 04:35:47;;;;;;;14.82;6.28;;;;;;;5.77;96.39;101102.69;4993494;28;20109;-71
2021/03/15 04:38:14;;;;;;;16.27;5.60;;;;;;;5.51;96.48;101073.72;4996195;28;20099;-71
2021/03/15 04:40:42;;;;;;;14.05;5.07;;;;;;;4.95;95.93;100976.44;4990574;28;20412;-71
2021/03/15 04:43:11;;;;;;;14.27;5.40;;;;;;;5.66;95.78;101092.06;4989686;28;20397;-71
2021/03/15 04:45:44;;;;;;;19.00;5.85;;;;;;;5.63;95.60;101087.84;4994240;28;20576;-71
2021/03/15 04:48:26;;;;;;;14.43;5.55;;;;;;;5.81;95.56;101122.69;4984851;28;20033;-71
2021/03/15 04:51:00;;;;;;;11.20;4.70;;;;;;;5.83;95.76;101123.44;5002328;28;20030;-71
2021/03/15 04:53:28;;;;;;;11.98;4.55;;;;;;;5.61;94.82;101092.41;5015658;28;20030;-71
2021/03/15 04:55:56;;;;;;;15.18;5.00;;;;;;;5.86;94.66;101142.72;4996283;28;20029;-71
2021/03/15 04:58:24;;;;;;;23.25;4.55;;;;;;;5.86;94.85;101146.19;4994050;28;20605;-71
2021/03/15 05:00:54;;;;;;;19.45;4.97;;;;;;;5.75;95.06;101131.13;4997942;28;20060;-71
2021/03/15 05:03:21;;;;;;;14.07;4.47;;;;;;;5.82;95.23;101144.75;4996196;28;20018;-71
2021/03/15 05:05:47;;;;;;;11.52;4.22;;;;;;;5.86;95.13;101150.66;5016987;28;20040;-71
2021/03/15 05:08:16;;;;;;;11.70;4.28;;;;;;;5.82;94.76;101152.69;5022303;28;20544;-71
2021/03/15 05:10:43;;;;;;;12.65;4.00;;;;;;;5.83;94.46;101160.50;5008667;28;20030;-70
2021/03/15 05:13:11;;;;;;;13.52;4.50;;;;;;;5.80;95.49;101157.25;5006673;28;20045;-69
2021/03/15 05:15:38;;;;;;;18.02;5.05;;;;;;;5.56;94.77;101125.50;5007449;28;20156;-69
2021/03/15 05:18:07;;;;;;;16.88;3.88;;;;;;;5.78;95.25;101160.00;5010278;28;20334;-69
2021/03/15 05:20:35;;;;;;;21.02;4.63;;;;;;;5.60;94.24;101132.25;5010474;28;20042;-69
2021/03/15 05:23:02;;;;;;;20.33;3.92;;;;;;;5.77;94.48;101160.97;5010784;28;20033;-69
2021/03/15 05:25:28;;;;;;;13.63;3.33;;;;;;;5.76;93.69;101159.31;5003513;28;20030;-71
2021/03/15 05:27:54;;;;;;;14.25;3.30;;;;;;;5.71;92.99;101165.88;5020461;28;20080;-71
2021/03/15 05:30:22;;;;;;;11.10;3.08;;;;;;;5.58;93.78;101161.47;5009235;28;20080;-71
2021/03/15 05:32:52;;;;;;;15.90;3.60;;;;;;;5.49;93.56;101170.09;5007388;28;20030;-72
2021/03/15 05:35:19;;;;;;;16.33;3.75;;;;;;;5.38;94.13;101165.59;5007555;28;20391;-71
2021/03/15 05:37:49;;;;;;;12.45;3.65;;;;;;;5.07;94.51;101136.06;5008427;28;20208;-71
2021/03/15 05:40:20;;;;;;;12.40;3.40;;;;;;;5.26;95.25;101172.63;5005668;28;20522;-72
2021/03/15 05:43:10;;;;;;;16.85;3.30;;;;;;;5.20;95.57;101170.41;5019529;28;20025;-72
2021/03/15 05:45:55;;;;;;;16.98;3.10;;;;;;;5.09;95.99;101163.22;5019961;28;20083;-71
2021/03/15 05:48:46;;;;;;;16.92;3.45;;;;;;;5.10;95.73;101174.66;5006543;28;20033;-69
2021/03/15 05:51:30;;;;;;;18.15;3.25;;;;;;;5.08;95.49;101187.16;5006955;28;20119;-69
2021/03/15 05:54:14;;;;;;;16.00;3.33;;;;;;;5.05;95.42;101188.22;5019745;28;20026;-71
2021/03/15 05:57:01;;;;;;;20.00;3.65;;;;;;;5.01;95.55;101187.59;5003245;28;20040;-71
2021/03/15 05:59:45;;;;;;;14.05;3.30;;;;;;;4.99;96.57;101186.00;5004801;28;20026;-71
2021/03/15 06:02:43;;;;;;;24.13;3.97;;;;;;;4.95;95.87;101181.91;5006043;28;20500;-71
2021/03/15 06:05:25;;;;;;;12.35;3.10;;;;;;;4.99;96.28;101207.16;4994519;28;20038;-71
2021/03/15 06:07:56;;;;;;;19.40;3.30;;;;;;;5.00;96.87;101195.63;5007344;28;20053;-71
2021/03/15 06:10:42;;;;;;;26.02;3.58;;;;;;;4.98;97.32;101200.19;5006905;28;20032;-71
2021/03/15 06:13:13;;;;;;;17.80;3.00;;;;;;;4.99;97.50;101207.16;4999579;28;20656;-71
2021/03/15 06:15:41;;;;;;;23.13;4.28;;;;;;;4.97;97.60;101209.94;4993346;28;20061;-72
2021/03/15 06:18:09;;;;;;;21.00;4.20;;;;;;;4.92;98.13;101208.56;4996783;28;20036;-71
2021/03/15 06:20:40;;;;;;;26.05;5.88;;;;;;;4.99;98.34;101212.44;4998805;28;20041;-74
2021/03/15 06:23:06;;;;;;;27.42;4.28;;;;;;;5.02;97.56;101212.25;5000012;28;20447;-71
2021/03/15 06:25:34;;;;;;;18.83;3.58;;;;;;;4.94;97.78;101210.13;4997897;28;20506;-69
2021/03/15 06:28:00;;;;;;;27.63;4.05;;;;;;;5.03;98.18;101219.22;4996860;28;20443;-69
2021/03/15 06:30:26;;;;;;;22.55;3.63;;;;;;;5.01;97.85;101226.41;4999723;28;20969;-69
2021/03/15 06:33:00;;;;;;;25.40;4.13;;;;;;;5.02;98.03;101236.06;4996312;28;20052;-69
2021/03/15 06:35:28;;;;;;;26.30;4.25;;;;;;;5.02;97.88;101239.53;5000802;28;20489;-70
2021/03/15 06:37:55;;;;;;;29.00;4.22;;;;;;;5.07;97.89;101236.59;4996421;28;20590;-69
2021/03/15 06:40:22;;;;;;;22.95;3.00;;;;;;;5.11;98.49;101245.16;4997647;28;20038;-69
2021/03/15 06:42:50;;;;;;;21.17;3.75;;;;;;;5.15;98.05;101247.47;4996996;28;20169;-69
2021/03/15 06:45:17;;;;;;;30.13;4.13;;;;;;;5.18;98.38;101254.34;4996435;28;20040;-69
2021/03/15 06:47:43;;;;;;;25.88;4.20;;;;;;;5.21;98.17;101252.34;4999515;28;20133;-69
2021/03/15 06:50:10;;;;;;;30.17;5.07;;;;;;;5.25;97.33;101263.53;4997989;28;20436;-69
2021/03/15 06:52:51;;;;;;;29.13;4.50;;;;;;;5.35;97.31;101256.66;4998192;28;20069;-69
2021/03/15 06:55:37;;;;;;;28.30;4.40;;;;;;;5.59;97.65;101265.59;4992493;28;20281;-70
2021/03/15 06:58:20;;;;;;;30.02;3.92;;;;;;;5.73;96.16;101264.59;5003605;28;20064;-69
2021/03/15 07:00:47;;;;;;;25.02;3.42;;;;;;;5.81;95.44;101278.97;5000722;28;20030;-70
2021/03/15 07:03:22;;;;;;;26.27;4.50;;;;;;;5.94;94.76;101275.41;5000544;28;20419;-69
2021/03/15 07:05:55;;;;;;;24.85;4.57;;;;;;;6.16;95.19;101277.38;5002290;28;20029;-72
2021/03/15 07:08:21;;;;;;;19.75;3.50;;;;;;;6.34;94.13;101280.44;4999645;28;20060;-68
2021/03/15 07:10:46;;;;;;;28.38;4.32;;;;;;;6.38;92.65;101281.09;4999739;28;20478;-68
2021/03/15 07:13:14;;;;;;;32.00;4.18;;;;;;;6.38;91.93;101279.28;4999634;28;20057;-68
2021/03/15 07:15:41;;;;;;;23.90;3.57;;;;;;;6.44;92.36;101285.91;4996269;28;20431;-68
2021/03/15 07:18:16;;;;;;;23.38;3.15;;;;;;;6.73;90.92;101286.34;4995263;28;20579;-68
2021/03/15 07:20:52;;;;;;;27.65;4.55;;;;;;;6.53;89.28;101188.94;5009330;28;20045;-68
2021/03/15 07:23:38;;;;;;;19.60;3.88;;;;;;;7.69;87.36;101293.16;5000952;28;20028;-68
2021/03/15 07:26:16;;;;;;;28.17;3.78;;;;;;;7.89;84.23;101284.44;4994613;28;20528;-68
2021/03/15 07:28:43;;;;;;;31.33;5.03;;;;;;;8.08;82.99;101294.41;4992869;28;20037;-68
2021/03/15 07:31:29;;;;;;;21.33;3.95;;;;;;;8.58;81.92;101296.53;4990380;28;20033;-68
2021/03/15 07:33:55;;;;;;;20.15;3.95;;;;;;;9.13;81.88;101310.56;5000695;28;20085;-68
2021/03/15 07:36:21;;;;;;;23.13;4.60;;;;;;;9.61;77.26;101306.44;4995071;28;22609;-67
2021/03/15 07:38:47;;;;;;;15.50;3.30;;;;;;;9.97;75.07;101309.47;4994296;28;20120;-68
2021/03/15 07:41:18;;;;;;;15.93;2.92;;;;;;;9.75;75.24;101322.03;4987589;28;20496;-69
2021/03/15 07:43:43;;;;;;;24.13;4.07;;;;;;;8.54;78.42;101327.00;5002983;28;20072;-69
2021/03/15 07:46:19;;;;;;;23.30;4.00;;;;;;;7.98;81.43;101328.03;5002163;28;20072;-70
2021/03/15 07:48:46;;;;;;;26.08;3.88;;;;;;;7.72;83.04;101338.94;4997847;28;20084;-67
2021/03/15 07:51:12;;;;;;;22.15;3.95;;;;;;;7.14;84.99;101289.44;4995090;28;20045;-68
2021/03/15 07:53:49;;;;;;;21.75;3.05;;;;;;;7.36;84.29;101354.13;4991500;28;20339;-67
2021/03/15 07:56:18;;;;;;;17.73;3.10;;;;;;;7.33;82.99;101360.53;4994306;28;20373;-67
2021/03/15 07:58:44;;;;;;;15.55;2.50;;;;;;;7.23;81.89;101358.69;5002128;28;20084;-67
2021/03/15 08:01:10;;;;;;;10.80;2.72;;;;;;;7.17;82.03;101365.31;4998593;28;20045;-68
2021/03/15 08:03:40;;;;;;;15.50;2.47;;;;;;;7.02;82.73;101368.19;4999493;28;20932;-68
2021/03/15 08:06:08;;;;;;;13.40;2.90;;;;;;;6.93;82.77;101368.91;5000670;28;20026;-68
2021/03/15 08:08:33;;;;;;;9.13;2.33;;;;;;;6.68;84.44;101338.91;5002514;28;20034;-68
2021/03/15 08:11:00;;;;;;;14.55;2.67;;;;;;;7.12;84.30;101363.03;4983227;28;20280;-68
2021/03/15 08:13:29;;;;;;;13.40;2.65;;;;;;;8.03;81.20;101335.63;4999971;28;20084;-67
2021/03/15 08:15:58;;;;;;;15.43;2.80;;;;;;;8.83;76.90;101350.31;4992421;28;20495;-68
2021/03/15 08:18:26;;;;;;;17.70;3.22;;;;;;;8.99;75.97;101380.97;5008419;28;20053;-67
2021/03/15 08:21:02;;;;;;;18.97;3.97;;;;;;;8.91;75.44;101375.44;4997363;28;20026;-67
2021/03/15 08:23:30;;;;;;;18.52;3.45;;;;;;;8.64;76.79;101363.47;4993011;28;20468;-68
2021/03/15 08:26:05;;;;;;;17.00;3.53;;;;;;;8.55;75.49;101379.25;4995323;28;20139;-68
2021/03/15 08:28:34;;;;;;;16.73;3.35;;;;;;;8.58;74.46;101383.44;5001569;28;20022;-68
2021/03/15 08:31:11;;;;;;;13.90;2.67;;;;;;;8.11;76.08;101342.00;4991301;28;20025;-68
2021/03/15 08:33:38;;;;;;;11.05;2.30;;;;;;;8.22;77.22;101401.44;4999573;28;20041;-68
2021/03/15 08:36:04;;;;;;;15.93;2.65;;;;;;;7.91;79.17;101404.75;4995240;28;20480;-68
2021/03/15 08:38:32;;;;;;;16.98;2.90;;;;;;;7.72;80.12;101405.34;4994166;28;20029;-68
2021/03/15 08:40:59;;;;;;;12.43;2.55;;;;;;;7.71;80.47;101414.28;4995116;28;20772;-68
2021/03/15 08:43:29;;;;;;;12.85;2.92;;;;;;;7.64;80.23;101410.41;4997617;28;20148;-68
2021/03/15 08:46:05;;;;;;;15.30;2.85;;;;;;;7.58;81.48;101413.56;4996336;28;20030;-68
2021/03/15 08:48:33;;;;;;;13.70;2.63;;;;;;;7.78;81.39;101414.66;5004032;28;20365;-68
2021/03/15 08:51:12;;;;;;;;;;;;;;;8.22;80.11;101420.88;4994987;28;20091;-67
2021/03/15 08:53:38;;;;;;;11.88;2.72;;;;;;;8.84;77.18;101418.56;4994348;28;19959;-68
2021/03/15 08:56:04;;;;;;;12.32;3.00;;;;;;;9.28;75.51;101412.28;4997074;28;20368;-68
2021/03/15 08:58:40;;;;;;;11.85;3.20;;;;;;;10.71;73.13;101422.06;5000911;28;20037;-73
2021/03/15 09:01:08;;;;;;;17.98;3.17;;;;;;;11.87;64.37;101383.69;5000241;28;20034;-73
2021/03/15 09:03:50;;;;;;;15.55;3.20;;;;;;;13.12;61.21;101424.09;5000382;28;20040;-73
2021/03/15 09:06:31;;;;;;;18.70;3.67;;;;;;;13.02;61.06;101432.22;4999893;28;20061;-68
2021/03/15 09:09:05;;;;;;;14.48;2.88;;;;;;;12.40;60.47;101427.63;5002378;28;20734;-73
2021/03/15 09:11:34;;;;;;;13.73;2.92;;;;;;;12.15;58.31;101439.88;5002379;28;20105;-74
2021/03/15 09:14:22;;;;;;;14.35;2.85;;;;;;;11.36;58.22;101439.28;5003977;28;20745;-74
2021/03/15 09:16:56;;;;;;;12.95;2.33;;;;;;;10.84;61.36;101445.78;4998013;28;20257;-74
2021/03/15 09:19:34;;;;;;;12.90;2.63;;;;;;;10.19;63.76;101438.22;5015096;28;20568;-74
2021/03/15 09:21:59;;;;;;;15.55;2.78;;;;;;;9.87;63.46;101444.53;4999505;28;20036;-67
2021/03/15 09:24:45;;;;;;;17.05;2.72;;;;;;;9.59;62.15;101450.47;5004373;28;20050;-68
2021/03/15 09:27:19;;;;;;;20.90;2.97;;;;;;;9.13;63.67;101428.59;4999633;28;20530;-68
2021/03/15 09:29:59;;;;;;;11.30;1.85;;;;;;;8.96;64.55;101427.31;5002776;28;20084;-73
2021/03/15 09:32:49;;;;;;;11.68;2.08;;;;;;;8.83;63.54;101416.00;5002120;28;20022;-68
2021/03/15 09:35:28;;;;;;;12.63;2.33;;;;;;;8.75;63.54;101427.31;4997445;28;20018;-67
2021/03/15 09:38:01;;;;;;;14.05;2.55;;;;;;;9.09;64.12;101461.75;5002414;28;20033;-74
2021/03/15 09:40:29;;;;;;;15.55;2.90;;;;;;;9.05;65.97;101460.31;5005634;28;20038;-74
2021/03/15 09:42:55;;;;;;;21.37;3.30;;;;;;;9.06;66.00;101470.00;5005320;28;20032;-73
2021/03/15 09:45:34;;;;;;;13.93;2.88;;;;;;;8.81;67.38;101439.25;5002111;28;20479;-74
2021/03/15 09:48:00;;;;;;;15.40;2.53;;;;;;;8.75;66.91;101471.69;4984279;28;20481;-67
2021/03/15 09:50:29;;;;;;;14.25;2.45;;;;;;;8.70;67.03;101474.72;5005232;28;20029;-67
2021/03/15 09:53:05;;;;;;;18.88;3.13;;;;;;;8.55;67.22;101474.19;5007165;28;20375;-68
2021/03/15 09:55:31;;;;;;;13.85;2.58;;;;;;;8.45;67.20;101471.38;5019463;28;20097;-67
2021/03/15 09:58:07;;;;;;;13.85;3.08;;;;;;;8.47;66.49;101492.53;5005942;28;20631;-73
2021/03/15 10:00:33;;;;;;;11.15;2.45;;;;;;;8.23;65.41;101437.69;5006504;28;20060;-74
2021/03/15 10:02:59;;;;;;;15.18;2.58;;;;;;;8.65;65.68;101483.09;5003215;28;20022;-72
2021/03/15 10:05:26;;;;;;;10.23;2.55;;;;;;;8.71;65.21;101492.38;5003010;28;20030;-74
2021/03/15 10:07:51;;;;;;;11.32;2.03;;;;;;;8.80;63.82;101496.94;5002454;28;20038;-73
2021/03/15 10:10:19;;;;;;;17.15;2.75;;;;;;;8.79;64.97;101486.44;5005787;28;20029;-74
2021/03/15 10:12:50;;;;;;;15.93;3.20;;;;;;;8.81;64.50;101495.97;5004747;28;20045;-74
2021/03/15 10:15:17;;;;;;;13.30;2.30;;;;;;;8.97;63.42;101492.91;5002591;28;20253;-74
2021/03/15 10:17:44;;;;;;;13.73;2.28;;;;;;;9.02;62.97;101493.38;5005641;28;20050;-74
2021/03/15 10:20:20;;;;;;;15.00;2.58;;;;;;;8.64;63.56;101465.44;5006274;28;20940;-73
2021/03/15 10:22:46;;;;;;;14.25;2.20;;;;;;;8.87;65.42;101500.81;5000810;28;20041;-74
2021/03/15 10:25:13;;;;;;;12.65;2.30;;;;;;;8.83;63.33;101510.00;5005089;28;20531;-74
2021/03/15 10:27:39;;;;;;;15.23;2.50;;;;;;;9.00;64.27;101502.47;5002572;28;20121;-74
2021/03/15 10:30:09;;;;;;;19.33;3.05;;;;;;;9.21;64.12;101504.31;5000549;28;20049;-67
2021/03/15 10:32:35;;;;;;;12.10;2.25;;;;;;;8.86;62.72;101437.03;5018660;28;20022;-72
2021/03/15 10:35:03;;;;;;;15.98;2.97;;;;;;;9.19;63.89;101513.25;5005583;28;20396;-74
2021/03/15 10:37:36;;;;;;;15.20;2.35;;;;;;;9.24;63.17;101520.03;5006248;28;20030;-72
2021/03/15 10:40:03;;;;;;;16.45;2.53;;;;;;;9.26;63.59;101510.94;5004642;28;20124;-75
2021/03/15 10:42:30;;;;;;;11.02;2.25;;;;;;;9.04;62.82;101491.44;5005921;28;20037;-74
2021/03/15 10:44:56;;;;;;;11.60;2.35;;;;;;;9.07;62.62;101498.31;4986894;28;20507;-74
2021/03/15 10:47:34;;;;;;;10.75;2.00;;;;;;;9.28;62.98;101524.97;5007033;28;20029;-74
2021/03/15 10:50:01;;;;;;;12.82;2.00;;;;;;;9.43;62.29;101530.81;4988900;28;20551;-73
2021/03/15 10:52:35;;;;;;;11.75;2.28;;;;;;;9.43;61.45;101533.50;5019836;28;20128;-74
2021/03/15 10:55:12;;;;;;;19.58;2.83;;;;;;;9.49;60.36;101527.66;5004328;28;20027;-72
2021/03/15 10:57:59;;;;;;;12.33;2.50;;;;;;;9.56;60.26;101537.81;5017079;28;20040;-73
2021/03/15 11:00:26;;;;;;;14.38;2.50;;;;;;;9.49;62.07;101538.31;5002523;28;20029;-73
2021/03/15 11:02:51;;;;;;;12.68;2.83;;;;;;;9.22;63.28;101487.34;5005777;28;20094;-74
2021/03/15 11:05:17;;;;;;;18.20;2.88;;;;;;;9.61;63.05;101536.44;5001374;28;20520;-75
2021/03/15 11:07:43;;;;;;;14.95;3.13;;;;;;;9.71;61.34;101539.16;5005513;28;20123;-74
2021/03/15 11:10:14;;;;;;;14.70;2.78;;;;;;;9.80;62.25;101533.06;5005176;28;20044;-74
2021/03/15 11:12:41;;;;;;;14.95;2.53;;;;;;;9.84;62.28;101540.81;5001044;28;20440;-73
2021/03/15 11:15:29;;;;;;;16.83;2.70;;;;;;;9.99;61.84;101551.97;4973714;28;20676;-73
2021/03/15 11:18:03;;;;;;;19.02;3.28;;;;;;;9.89;62.52;101550.09;4994508;28;20104;-74
2021/03/15 11:20:43;;;;;;;17.30;2.60;;;;;;;10.02;61.92;101549.88;5001294;28;20033;-73
2021/03/15 11:23:09;;;;;;;15.70;3.20;;;;;;;9.96;62.25;101558.41;5002968;28;20022;-73
2021/03/15 11:25:35;;;;;;;14.20;2.83;;;;;;;9.90;61.67;101557.13;5002913;28;20129;-74
2021/03/15 11:28:12;;;;;;;13.40;2.72;;;;;;;9.89;61.95;101554.56;5000609;28;20496;-74
2021/03/15 11:30:39;;;;;;;19.92;2.78;;;;;;;9.52;63.83;101531.03;5002447;28;20065;-73
2021/03/15 11:33:08;;;;;;;19.70;3.10;;;;;;;9.38;64.64;101562.34;4997221;28;20037;-74
2021/03/15 11:35:36;;;;;;;12.30;2.60;;;;;;;9.36;64.90;101563.47;4998359;28;20041;-74
2021/03/15 11:38:03;;;;;;;12.82;2.72;;;;;;;9.16;65.28;101556.13;4994961;28;20109;-74
2021/03/15 11:40:41;;;;;;;17.98;2.50;;;;;;;9.31;65.92;101564.69;4999380;28;20149;-74
2021/03/15 11:43:09;;;;;;;16.85;3.10;;;;;;;9.48;66.18;101557.94;5004377;28;20110;-73